Time;durP1;ratioP1;P1;durP2;ratioP2;P2;SDS_P1;SDS_P2;PMS_P1;PMS_P2;Temp;Humidity;BMP_temperature;BMP_pressure;BME280_temperature;BME280_humidity;BME280_pressure;Samples;Min_cycle;Max_cycle;Signal;HPM_P1;HPM_P2
2022/03/15 00:01:19;;;;;;;8.85;6.45;;;4.20;99.90;;;;;;4683610;28;10000352;-70
2022/03/15 00:03:45;;;;;;;11.13;7.30;;;4.20;99.90;;;;;;5043865;28;20028;-69
2022/03/15 00:06:10;;;;;;;9.38;7.15;;;4.20;99.90;;;;;;5041510;28;20035;-70
2022/03/15 00:08:36;;;;;;;8.80;6.50;;;4.20;99.90;;;;;;5048785;28;20021;-69
2022/03/15 00:11:05;;;;;;;9.23;6.85;;;4.20;99.90;;;;;;5038254;28;20033;-70
2022/03/15 00:13:38;;;;;;;9.27;6.80;;;4.20;99.90;;;;;;5042128;28;20039;-70
2022/03/15 00:16:04;;;;;;;9.00;6.75;;;4.10;99.90;;;;;;5040278;28;20132;-69
2022/03/15 00:18:30;;;;;;;8.15;6.57;;;4.10;99.90;;;;;;5043355;28;20104;-70
2022/03/15 00:21:02;;;;;;;9.82;7.03;;;4.10;99.90;;;;;;5043987;28;20378;-70
2022/03/15 00:23:28;;;;;;;9.90;6.53;;;4.10;99.90;;;;;;5054614;28;20504;-69
2022/03/15 00:25:54;;;;;;;9.60;7.07;;;4.10;99.90;;;;;;5039601;28;20025;-70
2022/03/15 00:28:22;;;;;;;10.93;7.28;;;4.10;99.90;;;;;;5037323;28;20055;-70
2022/03/15 00:30:48;;;;;;;10.63;6.93;;;4.10;99.90;;;;;;5037577;28;20083;-69
2022/03/15 00:33:15;;;;;;;9.23;6.90;;;4.10;99.90;;;;;;5039643;28;20089;-70
2022/03/15 00:35:40;;;;;;;8.02;6.30;;;4.10;99.90;;;;;;5037165;28;20443;-69
2022/03/15 00:38:06;;;;;;;12.65;6.80;;;4.10;99.90;;;;;;5048569;28;20026;-70
2022/03/15 00:40:32;;;;;;;8.55;6.30;;;4.10;99.90;;;;;;5036945;28;20029;-70
2022/03/15 00:42:58;;;;;;;8.20;6.55;;;4.10;99.90;;;;;;5042372;28;20086;-70
2022/03/15 00:45:24;;;;;;;10.43;6.72;;;4.10;99.90;;;;;;5035612;28;20528;-70
2022/03/15 00:47:51;;;;;;;7.80;5.90;;;4.10;99.90;;;;;;5040484;28;20037;-70
2022/03/15 00:50:17;;;;;;;9.80;6.47;;;4.00;99.90;;;;;;5039112;28;20029;-69
2022/03/15 00:52:42;;;;;;;7.85;6.32;;;4.00;99.90;;;;;;5030138;28;20033;-70
2022/03/15 00:55:08;;;;;;;7.63;6.20;;;3.90;99.90;;;;;;5038688;28;20461;-69
2022/03/15 00:57:34;;;;;;;8.60;6.60;;;3.90;99.90;;;;;;5046114;28;20088;-69
2022/03/15 00:59:59;;;;;;;8.75;6.20;;;3.90;99.90;;;;;;5029488;28;20021;-69
2022/03/15 01:02:25;;;;;;;8.68;6.20;;;3.80;99.90;;;;;;5032985;28;20120;-69
2022/03/15 01:04:51;;;;;;;9.18;6.70;;;3.80;99.90;;;;;;5031988;28;20036;-69
2022/03/15 01:07:16;;;;;;;11.45;6.93;;;3.80;99.90;;;;;;5042186;28;20056;-69
2022/03/15 01:09:42;;;;;;;8.27;6.40;;;3.80;99.90;;;;;;5039017;28;20029;-69
2022/03/15 01:12:08;;;;;;;7.40;6.15;;;3.80;99.90;;;;;;5029122;28;20040;-69
2022/03/15 01:14:35;;;;;;;9.50;6.80;;;3.80;99.90;;;;;;5031315;28;20037;-69
2022/03/15 01:17:02;;;;;;;8.82;6.07;;;3.80;99.90;;;;;;5033502;28;20037;-69
2022/03/15 01:19:28;;;;;;;8.95;6.60;;;3.80;99.90;;;;;;5030878;28;20025;-69
2022/03/15 01:21:53;;;;;;;9.15;6.53;;;3.80;99.90;;;;;;5032429;28;20052;-69
2022/03/15 01:24:20;;;;;;;10.02;7.15;;;3.80;99.90;;;;;;5034239;28;20029;-69
2022/03/15 01:26:46;;;;;;;8.73;6.30;;;3.80;99.90;;;;;;5049776;28;20281;-70
2022/03/15 01:29:12;;;;;;;8.13;6.22;;;3.80;99.90;;;;;;5043909;28;20105;-70
2022/03/15 01:31:37;;;;;;;7.10;5.53;;;3.70;99.90;;;;;;5048925;28;20126;-69
2022/03/15 01:34:04;;;;;;;7.45;5.70;;;3.70;99.90;;;;;;5038706;28;20036;-70
2022/03/15 01:36:30;;;;;;;7.55;5.68;;;3.80;99.90;;;;;;5049885;28;20025;-69
2022/03/15 01:38:59;;;;;;;7.95;5.80;;;3.70;99.90;;;;;;5056562;28;20044;-69
2022/03/15 01:41:24;;;;;;;6.43;5.45;;;3.80;99.90;;;;;;5041776;28;20471;-69
2022/03/15 01:43:50;;;;;;;6.55;5.28;;;3.80;99.90;;;;;;5036921;28;20029;-69
2022/03/15 01:46:19;;;;;;;6.85;5.30;;;3.80;99.90;;;;;;5044871;28;20051;-69
2022/03/15 01:48:45;;;;;;;6.30;5.30;;;3.70;99.90;;;;;;5040111;28;20178;-69
2022/03/15 01:51:16;;;;;;;7.75;5.50;;;3.70;99.90;;;;;;5041690;28;20091;-69
2022/03/15 01:53:41;;;;;;;6.32;5.40;;;3.70;99.90;;;;;;5040411;28;20467;-69
2022/03/15 01:56:07;;;;;;;7.82;5.57;;;3.70;99.90;;;;;;5047282;28;20043;-69
2022/03/15 01:58:33;;;;;;;6.63;5.30;;;3.70;99.90;;;;;;5042760;28;20104;-69
2022/03/15 02:00:59;;;;;;;6.85;5.40;;;3.60;99.90;;;;;;5041191;28;20169;-69
2022/03/15 02:03:24;;;;;;;7.80;5.55;;;3.60;99.90;;;;;;5039649;28;20038;-69
2022/03/15 02:05:50;;;;;;;7.95;5.60;;;3.60;99.90;;;;;;5043511;28;20399;-69
2022/03/15 02:08:16;;;;;;;8.18;5.78;;;3.50;99.90;;;;;;5043386;28;20033;-69
2022/03/15 02:10:43;;;;;;;7.90;5.43;;;3.50;99.90;;;;;;5043281;28;20029;-69
2022/03/15 02:13:10;;;;;;;6.43;5.05;;;3.50;99.90;;;;;;5055308;28;20127;-69
2022/03/15 02:15:36;;;;;;;8.32;5.50;;;3.50;99.90;;;;;;5039674;28;20028;-69
2022/03/15 02:18:03;;;;;;;6.07;5.00;;;3.50;99.90;;;;;;5053051;28;20032;-69
2022/03/15 02:20:30;;;;;;;6.82;5.07;;;3.40;99.90;;;;;;5053739;28;20040;-69
2022/03/15 02:22:57;;;;;;;10.15;5.70;;;3.40;99.90;;;;;;5041774;28;20447;-69
2022/03/15 02:25:23;;;;;;;7.78;5.80;;;3.40;99.90;;;;;;5038875;28;20033;-69
2022/03/15 02:27:48;;;;;;;7.15;5.50;;;3.40;99.90;;;;;;5031180;28;20455;-69
2022/03/15 02:30:14;;;;;;;8.68;5.40;;;3.40;99.90;;;;;;5028556;28;20028;-69
2022/03/15 02:32:39;;;;;;;6.78;5.30;;;3.50;99.90;;;;;;5019670;28;20018;-69
2022/03/15 02:35:06;;;;;;;7.70;5.43;;;3.40;99.90;;;;;;5022354;28;20188;-69
2022/03/15 02:37:32;;;;;;;7.38;4.85;;;3.40;99.90;;;;;;5022383;28;20540;-69
2022/03/15 02:39:58;;;;;;;5.70;4.70;;;3.40;99.90;;;;;;5018568;28;20034;-69
2022/03/15 02:42:23;;;;;;;8.45;5.95;;;3.40;99.90;;;;;;5015835;28;20478;-69
2022/03/15 02:44:49;;;;;;;8.02;5.45;;;3.40;99.90;;;;;;5021001;28;20142;-69
2022/03/15 02:47:15;;;;;;;7.85;5.50;;;3.40;99.90;;;;;;5036828;28;20537;-69
2022/03/15 02:49:40;;;;;;;8.70;5.50;;;3.40;99.90;;;;;;5020908;28;20036;-69
2022/03/15 02:52:06;;;;;;;9.77;6.25;;;3.40;99.90;;;;;;5024619;28;20281;-69
2022/03/15 02:54:32;;;;;;;7.18;5.68;;;3.30;99.90;;;;;;5019586;28;20029;-69
2022/03/15 02:56:58;;;;;;;9.50;6.15;;;3.30;99.90;;;;;;5027749;28;20025;-69
2022/03/15 02:59:23;;;;;;;7.20;5.60;;;3.30;99.90;;;;;;5017253;28;20718;-69
2022/03/15 03:01:49;;;;;;;8.45;5.72;;;3.30;99.90;;;;;;5023149;28;20167;-69
2022/03/15 03:04:15;;;;;;;7.10;5.90;;;3.30;99.90;;;;;;5021177;28;20026;-69
2022/03/15 03:06:43;;;;;;;8.57;6.03;;;3.30;99.90;;;;;;5026904;28;20237;-69
2022/03/15 03:09:13;;;;;;;8.55;6.40;;;3.30;99.90;;;;;;5029054;28;20033;-69
2022/03/15 03:11:39;;;;;;;8.02;6.20;;;3.30;99.90;;;;;;5016374;28;20116;-69
2022/03/15 03:14:06;;;;;;;8.40;5.88;;;3.30;99.90;;;;;;5010780;28;20116;-69
2022/03/15 03:16:34;;;;;;;8.77;6.63;;;3.30;99.90;;;;;;5013830;28;20034;-69
2022/03/15 03:19:01;;;;;;;10.73;6.35;;;3.30;99.90;;;;;;5013985;28;20485;-69
2022/03/15 03:21:29;;;;;;;8.85;6.55;;;3.30;99.90;;;;;;5019659;28;20060;-69
2022/03/15 03:23:56;;;;;;;11.07;7.25;;;3.20;99.90;;;;;;5020298;28;20378;-68
2022/03/15 03:26:23;;;;;;;11.50;7.03;;;3.20;99.90;;;;;;5032993;28;20030;-69
2022/03/15 03:28:50;;;;;;;10.52;7.18;;;3.20;99.90;;;;;;5047321;28;20508;-69
2022/03/15 03:31:16;;;;;;;10.77;7.57;;;3.20;99.90;;;;;;5046903;28;20031;-69
2022/03/15 03:33:42;;;;;;;11.18;7.90;;;3.20;99.90;;;;;;5037407;28;20068;-69
2022/03/15 03:36:09;;;;;;;11.30;7.55;;;3.20;99.90;;;;;;5037704;28;20301;-69
2022/03/15 03:38:36;;;;;;;8.70;6.68;;;3.20;99.90;;;;;;5044987;28;20036;-69
2022/03/15 03:41:02;;;;;;;8.30;6.53;;;3.20;99.90;;;;;;5050414;28;20029;-69
2022/03/15 03:43:29;;;;;;;8.05;5.85;;;3.20;99.90;;;;;;5035055;28;20020;-69
2022/03/15 03:45:54;;;;;;;8.02;5.68;;;3.20;99.90;;;;;;5032990;28;20032;-69
2022/03/15 03:48:21;;;;;;;6.70;5.68;;;3.20;99.90;;;;;;5049862;28;20436;-69
2022/03/15 03:50:48;;;;;;;9.15;6.10;;;3.20;99.90;;;;;;5040449;28;20025;-69
2022/03/15 03:53:15;;;;;;;6.60;5.72;;;3.10;99.90;;;;;;5037070;28;20041;-69
2022/03/15 03:55:40;;;;;;;8.15;5.72;;;3.20;99.90;;;;;;5035663;28;20455;-69
2022/03/15 03:58:06;;;;;;;7.05;5.70;;;3.20;99.90;;;;;;5038212;28;20271;-69
2022/03/15 04:00:32;;;;;;;8.63;5.85;;;3.20;99.90;;;;;;5040353;28;20021;-69
2022/03/15 04:02:59;;;;;;;9.43;6.22;;;3.10;99.90;;;;;;5037334;28;20105;-69
2022/03/15 04:05:25;;;;;;;8.07;5.50;;;3.20;99.90;;;;;;5031321;28;20071;-69
2022/03/15 04:07:51;;;;;;;8.88;5.60;;;3.20;99.90;;;;;;5039397;28;20026;-69
2022/03/15 04:10:21;;;;;;;8.23;5.68;;;3.10;99.90;;;;;;5038408;28;23679;-69
2022/03/15 04:12:47;;;;;;;8.45;5.90;;;3.10;99.90;;;;;;5050054;28;20283;-69
2022/03/15 04:15:13;;;;;;;7.97;6.00;;;3.10;99.90;;;;;;5030889;28;20125;-70
2022/03/15 04:17:39;;;;;;;9.52;5.95;;;3.10;99.90;;;;;;5048145;28;20127;-69
2022/03/15 04:20:05;;;;;;;8.82;6.30;;;3.10;99.90;;;;;;5054660;28;20443;-69
2022/03/15 04:22:31;;;;;;;7.93;6.10;;;3.00;99.90;;;;;;5036895;28;20064;-69
2022/03/15 04:24:57;;;;;;;8.95;6.20;;;3.00;99.90;;;;;;5041506;28;20601;-69
2022/03/15 04:27:23;;;;;;;8.38;6.93;;;3.00;99.90;;;;;;5039895;28;20281;-69
2022/03/15 04:29:49;;;;;;;11.55;7.00;;;3.00;99.90;;;;;;5046366;28;20404;-69
2022/03/15 04:32:14;;;;;;;9.50;7.20;;;3.00;99.90;;;;;;5036180;28;20024;-69
2022/03/15 04:34:40;;;;;;;10.93;7.20;;;3.10;99.90;;;;;;5037221;28;20036;-69
2022/03/15 04:37:06;;;;;;;8.90;7.10;;;3.00;99.90;;;;;;5032464;28;20484;-69
2022/03/15 04:39:33;;;;;;;12.15;8.13;;;3.00;99.90;;;;;;5044696;28;20033;-69
2022/03/15 04:41:58;;;;;;;10.80;6.90;;;2.90;99.90;;;;;;5044096;28;20033;-69
2022/03/15 04:44:24;;;;;;;9.07;6.93;;;2.90;99.90;;;;;;5029116;28;20503;-69
2022/03/15 04:46:50;;;;;;;10.82;6.72;;;2.90;99.90;;;;;;5049999;28;20025;-68
2022/03/15 04:49:15;;;;;;;8.10;6.40;;;2.90;99.90;;;;;;5042655;28;20243;-69
2022/03/15 04:51:41;;;;;;;9.57;6.93;;;2.90;99.90;;;;;;5041236;28;20534;-69
2022/03/15 04:54:06;;;;;;;9.50;7.22;;;2.90;99.90;;;;;;5046011;28;20413;-69
2022/03/15 04:56:32;;;;;;;9.10;6.70;;;2.90;99.90;;;;;;5042865;28;20037;-69
2022/03/15 04:58:58;;;;;;;9.52;7.30;;;2.90;99.90;;;;;;5035317;28;20036;-69
2022/03/15 05:01:23;;;;;;;8.23;6.47;;;2.90;99.90;;;;;;5049376;28;20016;-68
2022/03/15 05:03:49;;;;;;;8.65;6.40;;;2.90;99.90;;;;;;5043769;28;20021;-68
2022/03/15 05:06:15;;;;;;;9.70;7.10;;;2.90;99.90;;;;;;5042285;28;20119;-69
2022/03/15 05:08:40;;;;;;;9.63;6.63;;;2.90;99.90;;;;;;5042553;28;20031;-69
2022/03/15 05:11:06;;;;;;;9.07;6.53;;;2.90;99.90;;;;;;5044479;28;20079;-69
2022/03/15 05:13:44;;;;;;;8.30;6.38;;;2.90;99.90;;;;;;5049894;28;20381;-69
2022/03/15 05:16:13;;;;;;;8.32;6.38;;;2.90;99.90;;;;;;5038733;28;20036;-69
2022/03/15 05:18:40;;;;;;;7.47;6.32;;;2.90;99.90;;;;;;5051462;28;20028;-69
2022/03/15 05:21:07;;;;;;;11.48;6.65;;;2.90;99.90;;;;;;5052215;28;20028;-69
2022/03/15 05:23:33;;;;;;;9.00;6.65;;;2.90;99.90;;;;;;5046678;28;20063;-69
2022/03/15 05:25:58;;;;;;;8.70;7.30;;;2.90;99.90;;;;;;5048073;28;20028;-69
2022/03/15 05:28:24;;;;;;;9.13;6.70;;;2.90;99.90;;;;;;5063747;28;20421;-68
2022/03/15 05:30:50;;;;;;;8.93;6.88;;;2.90;99.90;;;;;;5039609;28;20033;-69
2022/03/15 05:33:16;;;;;;;9.60;7.40;;;2.90;99.90;;;;;;5047271;28;20040;-69
2022/03/15 05:35:42;;;;;;;9.45;6.72;;;2.90;99.90;;;;;;5040979;28;20423;-69
2022/03/15 05:38:09;;;;;;;12.02;7.60;;;2.90;99.90;;;;;;5062944;28;20063;-69
2022/03/15 05:40:34;;;;;;;13.63;8.80;;;2.90;99.90;;;;;;5051789;28;20072;-69
2022/03/15 05:43:00;;;;;;;13.55;9.25;;;3.00;99.90;;;;;;5040394;28;20116;-69
2022/03/15 05:45:26;;;;;;;14.90;9.65;;;3.00;99.90;;;;;;5062372;28;20115;-69
2022/03/15 05:47:52;;;;;;;13.02;8.98;;;2.90;99.90;;;;;;5050170;28;20033;-69
2022/03/15 05:50:18;;;;;;;12.02;8.68;;;3.00;99.90;;;;;;5049042;28;20029;-69
2022/03/15 05:52:43;;;;;;;14.57;10.20;;;2.90;99.90;;;;;;5045972;28;20108;-69
2022/03/15 05:55:10;;;;;;;13.32;9.75;;;3.00;99.90;;;;;;5040032;28;20052;-68
2022/03/15 05:57:37;;;;;;;15.20;10.57;;;3.00;99.90;;;;;;5041072;28;20020;-69
2022/03/15 06:00:04;;;;;;;13.93;10.43;;;3.00;99.90;;;;;;5054222;28;20036;-68
2022/03/15 06:02:29;;;;;;;14.40;10.43;;;3.00;99.90;;;;;;5038509;28;20035;-68
2022/03/15 06:04:55;;;;;;;15.07;11.15;;;3.00;99.90;;;;;;5040650;28;20025;-69
2022/03/15 06:07:21;;;;;;;15.18;10.80;;;3.00;99.90;;;;;;5040013;28;20194;-69
2022/03/15 06:09:46;;;;;;;19.48;13.20;;;3.00;99.90;;;;;;5038683;28;20123;-69
2022/03/15 06:12:12;;;;;;;16.95;12.32;;;3.10;99.90;;;;;;5039123;28;20029;-69
2022/03/15 06:14:38;;;;;;;16.33;12.73;;;3.10;99.90;;;;;;5035249;28;20757;-69
2022/03/15 06:17:04;;;;;;;16.83;12.88;;;3.10;99.90;;;;;;5041844;28;20036;-68
2022/03/15 06:19:30;;;;;;;20.33;14.65;;;3.10;99.90;;;;;;5045809;28;20032;-69
2022/03/15 06:21:56;;;;;;;18.65;13.40;;;3.20;99.90;;;;;;5040348;28;20025;-69
2022/03/15 06:24:23;;;;;;;19.30;13.27;;;3.20;99.90;;;;;;5031983;28;20021;-69
2022/03/15 06:26:49;;;;;;;19.75;13.02;;;3.20;99.90;;;;;;5036272;28;20025;-69
2022/03/15 06:29:15;;;;;;;18.63;13.13;;;3.30;99.90;;;;;;5036053;28;20044;-69
2022/03/15 06:31:41;;;;;;;16.13;11.88;;;3.30;99.90;;;;;;5033068;28;20084;-69
2022/03/15 06:34:07;;;;;;;16.05;11.18;;;3.30;99.90;;;;;;5031953;28;20026;-69
2022/03/15 06:36:36;;;;;;;17.83;13.13;;;3.40;99.90;;;;;;5043281;28;20022;-69
2022/03/15 06:39:05;;;;;;;18.17;13.20;;;3.40;99.90;;;;;;5034637;28;20033;-69
2022/03/15 06:41:31;;;;;;;18.98;13.27;;;3.50;99.90;;;;;;5035518;28;20162;-69
2022/03/15 06:43:57;;;;;;;19.30;13.88;;;3.50;99.90;;;;;;5033334;28;20033;-69
2022/03/15 06:46:23;;;;;;;18.52;12.73;;;3.50;99.90;;;;;;5033960;28;20389;-69
2022/03/15 06:48:49;;;;;;;17.05;12.80;;;3.60;99.90;;;;;;5033412;28;20068;-69
2022/03/15 06:51:15;;;;;;;30.75;17.83;;;3.60;99.90;;;;;;5039948;28;20053;-69
2022/03/15 06:53:41;;;;;;;31.88;15.00;;;3.60;99.90;;;;;;5032679;28;20033;-69
2022/03/15 06:56:08;;;;;;;76.63;16.95;;;3.70;99.90;;;;;;5037668;28;20117;-69
2022/03/15 06:58:34;;;;;;;38.28;15.18;;;3.70;99.90;;;;;;5030368;28;20025;-69
2022/03/15 07:01:00;;;;;;;23.50;12.77;;;3.70;99.90;;;;;;5031326;28;20040;-69
2022/03/15 07:03:26;;;;;;;21.48;13.68;;;3.70;99.90;;;;;;5039108;28;20021;-69
2022/03/15 07:05:51;;;;;;;23.02;13.77;;;3.80;99.90;;;;;;5035853;28;20029;-69
2022/03/15 07:08:17;;;;;;;19.65;12.30;;;3.70;99.90;;;;;;5039212;28;20087;-68
2022/03/15 07:10:43;;;;;;;16.42;11.82;;;3.70;99.90;;;;;;5053741;28;20402;-69
2022/03/15 07:13:09;;;;;;;18.17;12.00;;;3.80;99.90;;;;;;5040315;28;20415;-69
2022/03/15 07:15:35;;;;;;;16.27;11.02;;;3.80;99.90;;;;;;5040403;28;20028;-69
2022/03/15 07:18:01;;;;;;;16.95;11.00;;;3.90;99.90;;;;;;5039417;28;20033;-69
2022/03/15 07:20:27;;;;;;;15.10;11.13;;;3.90;99.90;;;;;;5037292;28;20107;-69
2022/03/15 07:22:53;;;;;;;15.45;11.23;;;4.00;99.90;;;;;;5037324;28;20021;-69
2022/03/15 07:25:20;;;;;;;16.88;12.15;;;4.00;99.90;;;;;;5040536;28;20078;-69
2022/03/15 07:27:47;;;;;;;16.95;12.60;;;4.10;99.90;;;;;;5033939;28;22895;-69
2022/03/15 07:30:14;;;;;;;16.58;12.13;;;4.10;99.90;;;;;;5035563;28;20743;-69
2022/03/15 07:32:39;;;;;;;15.55;11.93;;;4.10;99.90;;;;;;5033057;28;20029;-69
2022/03/15 07:35:07;;;;;;;17.25;13.32;;;4.10;99.90;;;;;;5030512;28;20040;-69
2022/03/15 07:37:33;;;;;;;17.58;13.00;;;4.20;99.90;;;;;;5030717;28;20025;-69
2022/03/15 07:39:58;;;;;;;15.45;11.68;;;4.20;99.90;;;;;;5043657;28;20484;-69
2022/03/15 07:42:24;;;;;;;19.60;14.20;;;4.40;99.90;;;;;;5040293;28;20111;-69
2022/03/15 07:44:50;;;;;;;19.30;13.73;;;4.40;99.90;;;;;;5040936;28;20033;-69
2022/03/15 07:47:16;;;;;;;16.33;11.15;;;4.50;99.90;;;;;;5039677;28;20102;-69
2022/03/15 07:49:42;;;;;;;19.63;11.35;;;4.50;99.90;;;;;;5040743;28;20083;-69
2022/03/15 07:52:10;;;;;;;14.70;11.23;;;4.70;99.90;;;;;;5043086;28;20029;-69
2022/03/15 07:54:36;;;;;;;16.15;10.90;;;4.80;99.90;;;;;;5045518;28;20408;-69
2022/03/15 07:57:03;;;;;;;15.30;10.88;;;5.00;99.90;;;;;;5038592;28;20024;-70
2022/03/15 07:59:29;;;;;;;18.85;10.65;;;5.20;99.90;;;;;;5034663;28;20048;-70
2022/03/15 08:01:54;;;;;;;16.73;11.05;;;5.40;99.90;;;;;;5047696;28;20393;-69
2022/03/15 08:04:20;;;;;;;16.67;10.80;;;5.50;99.90;;;;;;5028827;28;20396;-69
2022/03/15 08:06:47;;;;;;;16.13;10.30;;;5.70;99.90;;;;;;5052201;28;20029;-69
2022/03/15 08:09:14;;;;;;;14.48;10.13;;;5.80;99.90;;;;;;5041220;28;20060;-69
2022/03/15 08:11:40;;;;;;;14.45;9.98;;;5.90;99.90;;;;;;5034323;28;20630;-69
2022/03/15 08:14:07;;;;;;;14.73;10.10;;;6.00;99.90;;;;;;5038289;28;20036;-69
2022/03/15 08:16:33;;;;;;;13.30;9.82;;;6.30;99.90;;;;;;5032952;28;20033;-70
2022/03/15 08:18:58;;;;;;;13.30;9.18;;;6.30;99.90;;;;;;5032746;28;20586;-69
2022/03/15 08:21:26;;;;;;;11.25;8.60;;;6.40;99.90;;;;;;5034131;28;20553;-69
2022/03/15 08:23:52;;;;;;;14.13;10.45;;;6.50;99.90;;;;;;5031652;28;20178;-69
2022/03/15 08:26:18;;;;;;;14.32;10.32;;;6.50;99.90;;;;;;5033562;28;20025;-69
2022/03/15 08:28:47;;;;;;;12.02;8.32;;;6.50;99.90;;;;;;5024818;28;20504;-69
2022/03/15 08:31:12;;;;;;;13.60;9.15;;;6.50;99.90;;;;;;5021969;28;20041;-69
2022/03/15 08:33:38;;;;;;;14.93;9.20;;;6.50;99.90;;;;;;5017239;28;20187;-70
2022/03/15 08:36:04;;;;;;;12.43;8.45;;;6.70;99.90;;;;;;5023189;28;20032;-70
2022/03/15 08:38:30;;;;;;;12.73;8.18;;;6.80;99.90;;;;;;5032684;28;20396;-69
2022/03/15 08:40:56;;;;;;;14.45;8.93;;;6.80;99.90;;;;;;5021877;28;20057;-69
2022/03/15 08:43:22;;;;;;;13.68;9.27;;;6.90;99.90;;;;;;5033614;28;20021;-69
2022/03/15 08:45:48;;;;;;;11.43;8.10;;;7.00;99.90;;;;;;5013371;28;20037;-69
2022/03/15 08:48:13;;;;;;;10.20;7.72;;;7.10;99.90;;;;;;5025659;28;20121;-70
2022/03/15 08:50:39;;;;;;;11.00;7.32;;;7.20;99.90;;;;;;5023245;28;20037;-69
2022/03/15 08:53:05;;;;;;;12.68;8.02;;;7.30;99.90;;;;;;5020339;28;20048;-69
2022/03/15 08:55:30;;;;;;;9.32;7.20;;;7.30;99.90;;;;;;5020195;28;20040;-70
2022/03/15 08:57:56;;;;;;;10.90;7.30;;;7.40;99.90;;;;;;5017514;28;20071;-70
2022/03/15 09:00:23;;;;;;;15.38;7.13;;;7.50;99.90;;;;;;5017965;28;20048;-69
2022/03/15 09:02:49;;;;;;;9.90;7.38;;;7.50;99.90;;;;;;5025084;28;20371;-70
2022/03/15 09:05:18;;;;;;;13.73;7.70;;;7.60;99.90;;;;;;5018644;28;20057;-70
2022/03/15 09:07:46;;;;;;;12.85;8.60;;;;;;;;;;5010665;28;20033;-74
2022/03/15 09:10:12;;;;;;;12.40;8.30;;;7.60;99.90;;;;;;5019924;28;20034;-73
2022/03/15 09:12:38;;;;;;;11.13;8.10;;;;;;;;;;5027489;28;20034;-73
2022/03/15 09:15:04;;;;;;;10.88;8.13;;;7.60;99.90;;;;;;5012534;28;20037;-73
2022/03/15 09:17:30;;;;;;;13.85;9.07;;;7.60;99.90;;;;;;5018363;28;20030;-72
2022/03/15 09:19:55;;;;;;;10.10;8.10;;;7.60;99.90;;;;;;5018965;28;20029;-73
2022/03/15 09:22:21;;;;;;;12.23;8.02;;;7.60;99.90;;;;;;5019875;28;20315;-73
2022/03/15 09:24:47;;;;;;;11.05;8.55;;;7.60;99.90;;;;;;5015631;28;20029;-72
2022/03/15 09:27:12;;;;;;;10.90;8.18;;;7.60;99.90;;;;;;5027819;28;20039;-71
2022/03/15 09:29:39;;;;;;;14.10;8.40;;;7.60;99.90;;;;;;5015312;28;20451;-71
2022/03/15 09:32:05;;;;;;;12.30;8.20;;;7.70;99.90;;;;;;5014098;28;20057;-74
2022/03/15 09:34:31;;;;;;;13.38;8.23;;;7.70;99.90;;;;;;5020922;28;20030;-74
2022/03/15 09:37:00;;;;;;;13.52;8.88;;;7.80;99.90;;;;;;5020536;28;20401;-73
2022/03/15 09:39:26;;;;;;;10.43;8.25;;;7.80;99.90;;;;;;5013996;28;20030;-73
2022/03/15 09:41:54;;;;;;;13.23;8.50;;;7.90;99.90;;;;;;5020141;28;20026;-73
2022/03/15 09:44:20;;;;;;;14.27;8.57;;;7.90;99.90;;;;;;5017001;28;20508;-73
2022/03/15 09:46:51;;;;;;;11.23;7.80;;;7.90;99.90;;;;;;5014332;28;20037;-72
2022/03/15 09:49:18;;;;;;;11.35;7.53;;;8.00;99.90;;;;;;5008034;28;20478;-72
2022/03/15 09:51:45;;;;;;;9.70;6.88;;;8.00;99.90;;;;;;5018467;28;20543;-74
2022/03/15 09:54:13;;;;;;;11.27;7.72;;;8.00;99.90;;;;;;5019113;28;20033;-75
2022/03/15 09:56:41;;;;;;;9.15;6.43;;;8.00;99.90;;;;;;5025359;28;20499;-74
2022/03/15 09:59:16;;;;;;;13.48;7.90;;;8.10;99.90;;;;;;5024808;28;20112;-74
2022/03/15 10:01:51;;;;;;;9.27;7.38;;;8.10;99.90;;;;;;5016094;28;20431;-73
2022/03/15 10:04:21;;;;;;;12.60;8.38;;;8.10;99.90;;;;;;5021905;28;20176;-74
2022/03/15 10:06:47;;;;;;;10.15;7.63;;;8.10;99.90;;;;;;5030006;28;20063;-74
2022/03/15 10:09:14;;;;;;;12.63;7.75;;;8.10;99.90;;;;;;5026544;28;20057;-73
2022/03/15 10:11:41;;;;;;;12.82;7.43;;;8.20;99.90;;;;;;5027077;28;20425;-71
2022/03/15 10:14:07;;;;;;;10.95;7.00;;;8.20;99.90;;;;;;5022794;28;20064;-73
2022/03/15 10:16:40;;;;;;;9.32;7.10;;;8.30;99.90;;;;;;5020605;28;20543;-74
2022/03/15 10:19:11;;;;;;;11.85;6.95;;;8.40;99.90;;;;;;5021795;28;20490;-74
2022/03/15 10:21:54;;;;;;;16.08;7.20;;;8.40;99.90;;;;;;5039232;28;20025;-74
2022/03/15 10:24:23;;;;;;;13.13;7.43;;;8.40;99.90;;;;;;5023544;28;20018;-75
2022/03/15 10:26:51;;;;;;;12.45;7.22;;;8.40;99.90;;;;;;5028492;28;20033;-74
2022/03/15 10:29:18;;;;;;;14.20;7.40;;;8.40;99.90;;;;;;5038526;28;20763;-74
2022/03/15 10:31:44;;;;;;;13.77;7.45;;;8.40;99.90;;;;;;5040697;28;20508;-72
2022/03/15 10:34:12;;;;;;;12.27;7.72;;;8.40;99.90;;;;;;5041927;28;20021;-72
2022/03/15 10:36:43;;;;;;;12.68;8.13;;;8.50;99.90;;;;;;5045811;28;20376;-72
2022/03/15 10:39:10;;;;;;;13.60;8.65;;;8.40;99.90;;;;;;5048172;28;20223;-72
2022/03/15 10:41:55;;;;;;;12.57;8.57;;;8.50;99.90;;;;;;5043339;28;20086;-73
2022/03/15 10:44:26;;;;;;;15.52;9.00;;;8.50;99.90;;;;;;5041157;28;20491;-74
2022/03/15 10:47:04;;;;;;;12.77;8.20;;;8.50;99.90;;;;;;5031819;28;20033;-73
2022/03/15 10:49:32;;;;;;;15.30;8.63;;;8.50;99.90;;;;;;5037819;28;20481;-71
2022/03/15 10:51:58;;;;;;;12.60;8.23;;;8.50;99.90;;;;;;5047798;28;20033;-73
2022/03/15 10:54:26;;;;;;;16.85;9.18;;;8.60;99.90;;;;;;5038303;28;20029;-72
2022/03/15 10:56:58;;;;;;;15.20;9.65;;;8.60;99.90;;;;;;5042371;28;20037;-72
2022/03/15 10:59:25;;;;;;;19.83;10.18;;;8.60;99.90;;;;;;5044146;28;20119;-72
2022/03/15 11:01:51;;;;;;;18.33;10.07;;;8.60;99.90;;;;;;5044885;28;20049;-73
2022/03/15 11:04:18;;;;;;;15.95;10.18;;;8.60;99.90;;;;;;5042277;28;20060;-72
2022/03/15 11:06:45;;;;;;;15.73;10.20;;;8.60;99.90;;;;;;5046978;28;20024;-72
2022/03/15 11:09:31;;;;;;;16.67;10.15;;;8.60;99.90;;;;;;5040353;28;20567;-73
2022/03/15 11:12:08;;;;;;;16.73;9.07;;;8.60;99.90;;;;;;5043344;28;20044;-73
2022/03/15 11:14:40;;;;;;;14.05;10.07;;;8.60;99.90;;;;;;5036792;28;20032;-73
2022/03/15 11:17:16;;;;;;;14.85;9.85;;;8.60;99.90;;;;;;5057284;28;20139;-73
2022/03/15 11:19:46;;;;;;;13.85;9.52;;;8.70;99.90;;;;;;5038325;28;20121;-73
2022/03/15 11:22:20;;;;;;;18.02;9.48;;;8.70;99.90;;;;;;5042090;28;20021;-73
2022/03/15 11:25:02;;;;;;;15.82;9.65;;;;;;;;;;5051905;28;20313;-73
2022/03/15 11:27:31;;;;;;;16.48;9.38;;;;;;;;;;5043268;28;20050;-73
2022/03/15 11:30:01;;;;;;;15.30;9.35;;;;;;;;;;5040310;28;20032;-73
2022/03/15 11:32:27;;;;;;;15.15;9.80;;;;;;;;;;5045481;28;20053;-74
2022/03/15 11:34:53;;;;;;;14.55;8.90;;;;;;;;;;5037075;28;20086;-71
2022/03/15 11:37:19;;;;;;;14.18;9.15;;;;;;;;;;5042175;28;20021;-74
2022/03/15 11:39:45;;;;;;;13.82;8.75;;;;;;;;;;5042586;28;20036;-73
2022/03/15 11:42:12;;;;;;;15.50;9.45;;;;;;;;;;5047103;28;20369;-74
2022/03/15 11:44:57;;;;;;;14.18;8.77;;;;;;;;;;5040207;28;20418;-74
2022/03/15 11:47:40;;;;;;;14.50;9.35;;;;;;;;;;5037366;28;20489;-74
2022/03/15 11:50:10;;;;;;;15.35;9.60;;;;;;;;;;5037290;28;20120;-74
2022/03/15 11:52:42;;;;;;;11.80;8.57;;;;;;;;;;5039606;28;20037;-74
2022/03/15 11:55:20;;;;;;;16.40;9.73;;;;;;;;;;5022471;28;20099;-74
2022/03/15 11:57:49;;;;;;;13.18;8.65;;;;;;;;;;5032009;28;20420;-74
2022/03/15 12:00:29;;;;;;;18.55;9.70;;;;;;;;;;5032777;28;20024;-74
2022/03/15 12:02:58;;;;;;;14.45;9.15;;;;;;;;;;5039411;28;20021;-74
2022/03/15 12:05:25;;;;;;;16.33;9.35;;;;;;;;;;5029819;28;20055;-74
2022/03/15 12:08:12;;;;;;;18.10;9.77;;;;;;;;;;5041410;28;20429;-74
2022/03/15 12:10:41;;;;;;;14.05;8.70;;;;;;;;;;5036544;28;20136;-74
2022/03/15 12:13:09;;;;;;;15.18;8.93;;;;;;;;;;5038394;28;20041;-74
2022/03/15 12:15:39;;;;;;;16.70;9.65;;;;;;;;;;5036244;28;20037;-73
2022/03/15 12:18:27;;;;;;;17.85;9.20;;;;;;;;;;5039311;28;20493;-74
2022/03/15 12:21:02;;;;;;;16.35;9.63;;;;;;;;;;4685243;28;10000413;-73
2022/03/15 12:23:29;;;;;;;14.30;8.50;;;;;;;;;;5043198;28;20099;-73
2022/03/15 12:25:56;;;;;;;14.60;8.85;;;;;;;;;;5046521;28;20033;-73
2022/03/15 12:28:29;;;;;;;13.25;8.52;;;;;;;;;;5034684;28;20045;-72
2022/03/15 12:31:03;;;;;;;14.27;8.43;;;;;;;;;;5039251;28;20507;-71
2022/03/15 12:33:29;;;;;;;11.80;8.20;;;;;;;;;;5045325;28;21001;-72
2022/03/15 12:36:16;;;;;;;11.20;8.35;;;;;;;;;;5029844;28;20271;-73
2022/03/15 12:38:42;;;;;;;12.88;8.35;;;;;;;;;;5038107;28;20020;-74
2022/03/15 12:41:08;;;;;;;12.13;8.10;;;;;;;;;;5048594;28;20024;-78
2022/03/15 12:43:34;;;;;;;11.90;8.30;;;;;;;;;;5040266;28;20277;-79
2022/03/15 12:46:08;;;;;;;12.80;8.18;;;;;;;;;;5036039;28;20041;-81
2022/03/15 12:48:35;;;;;;;15.95;8.63;;;;;;;;;;5033157;28;20024;-76
2022/03/15 12:51:02;;;;;;;12.15;8.10;;;;;;;;;;5033835;28;20042;-75
2022/03/15 12:53:42;;;;;;;13.18;7.90;;;;;;;;;;5041358;28;20029;-76
2022/03/15 12:56:10;;;;;;;12.88;8.45;;;;;;;;;;5034082;28;20033;-75
2022/03/15 12:58:37;;;;;;;15.60;8.30;;;;;;;;;;5032908;28;20622;-75
2022/03/15 13:01:03;;;;;;;14.88;7.43;;;;;;;;;;5028883;28;20029;-76